Time;durP1;ratioP1;P1;durP2;ratioP2;P2;SDS_P1;SDS_P2;PMS_P1;PMS_P2;Temp;Humidity;BMP_temperature;BMP_pressure;BME280_temperature;BME280_humidity;BME280_pressure;Samples;Min_cycle;Max_cycle;Signal;HPM_P1;HPM_P2
2022/02/15 00:00:35;;;;;;;21.57;9.80;;;;;;;-2.54;100.00;100794.30;1574346;91;21189;-74
2022/02/15 00:03:02;;;;;;;20.20;9.33;;;;;;;-2.54;100.00;100797.41;1587239;90;21589;-73
2022/02/15 00:05:30;;;;;;;17.83;8.67;;;;;;;-2.55;100.00;100792.59;1653960;86;21081;-73
2022/02/15 00:07:56;;;;;;;20.57;9.30;;;;;;;-2.57;100.00;100794.42;1665506;86;21014;-73
2022/02/15 00:10:23;;;;;;;23.70;9.70;;;;;;;-2.60;100.00;100796.34;1665697;86;21073;-73
2022/02/15 00:12:50;;;;;;;19.90;9.67;;;;;;;-2.65;100.00;100790.42;1665588;86;21006;-74
2022/02/15 00:15:18;;;;;;;19.93;9.67;;;;;;;-2.69;100.00;100787.91;1665643;86;21010;-74
2022/02/15 00:17:44;;;;;;;20.70;9.57;;;;;;;-2.72;100.00;100790.68;1665761;86;21034;-72
2022/02/15 00:20:11;;;;;;;19.10;9.10;;;;;;;-2.75;100.00;100790.81;1610200;88;21629;-73
2022/02/15 00:22:38;;;;;;;23.40;10.23;;;;;;;-2.77;100.00;100789.17;1610212;89;21128;-74
2022/02/15 00:25:07;;;;;;;22.17;10.43;;;;;;;-2.79;100.00;100789.71;1677428;84;21029;-74
2022/02/15 00:27:34;;;;;;;20.90;10.40;;;;;;;-2.80;100.00;100784.00;1703139;83;21013;-73
2022/02/15 00:30:01;;;;;;;24.17;10.23;;;;;;;-2.83;100.00;100770.89;1700418;84;21006;-73
2022/02/15 00:32:27;;;;;;;20.60;9.77;;;;;;;-2.86;100.00;100775.87;1703618;84;21065;-73
2022/02/15 00:34:54;;;;;;;22.23;9.77;;;;;;;-2.87;100.00;100774.14;1704655;84;21061;-74
2022/02/15 00:37:28;;;;;;;20.30;10.60;;;;;;;-2.88;100.00;100775.09;1704398;83;21002;-73
2022/02/15 00:39:54;;;;;;;19.73;10.33;;;;;;;-2.90;100.00;100772.50;1702754;84;21358;-73
2022/02/15 00:42:22;;;;;;;18.53;8.93;;;;;;;-2.92;100.00;100769.07;1702607;83;21558;-74
2022/02/15 00:44:49;;;;;;;20.43;9.70;;;;;;;-2.92;100.00;100768.19;1702662;84;21538;-74
2022/02/15 00:47:16;;;;;;;23.53;10.57;;;;;;;-2.93;100.00;100762.52;1702563;84;21551;-74
2022/02/15 00:49:43;;;;;;;23.97;10.60;;;;;;;-2.92;100.00;100765.10;1702531;83;21124;-73
2022/02/15 00:52:09;;;;;;;19.90;9.13;;;;;;;-2.90;100.00;100748.69;1702618;84;21011;-74
2022/02/15 00:54:37;;;;;;;19.87;8.70;;;;;;;-2.87;100.00;100752.97;1673379;86;21049;-73
2022/02/15 00:57:04;;;;;;;18.07;9.03;;;;;;;-2.83;100.00;100749.72;1702799;83;21006;-74
2022/02/15 00:59:31;;;;;;;18.23;8.53;;;;;;;-2.75;100.00;100741.84;1702428;84;21539;-73
2022/02/15 01:01:58;;;;;;;20.27;8.50;;;;;;;-2.69;100.00;100740.25;1706513;83;21088;-71
2022/02/15 01:04:25;;;;;;;19.77;8.57;;;;;;;-2.63;100.00;100740.91;1731990;83;21077;-73
2022/02/15 01:06:52;;;;;;;17.40;8.43;;;;;;;-2.59;100.00;100730.56;1731987;83;21023;-74
2022/02/15 01:09:19;;;;;;;19.90;8.87;;;;;;;-2.57;100.00;100741.46;1701646;84;21120;-73
2022/02/15 01:11:46;;;;;;;20.47;8.43;;;;;;;-2.57;100.00;100732.67;1731698;83;21034;-74
2022/02/15 01:14:14;;;;;;;18.10;8.80;;;;;;;-2.58;100.00;100741.56;1732102;83;21061;-71
2022/02/15 01:16:41;;;;;;;19.27;8.67;;;;;;;-2.62;100.00;100742.16;1731880;83;21014;-73
2022/02/15 01:19:09;;;;;;;17.27;8.27;;;;;;;-2.67;100.00;100743.69;1731761;82;21038;-73
2022/02/15 01:21:36;;;;;;;18.70;8.53;;;;;;;-2.70;100.00;100739.84;1732007;83;21038;-73
2022/02/15 01:24:05;;;;;;;20.33;9.17;;;;;;;-2.74;100.00;100741.39;1731703;83;21038;-73
2022/02/15 01:26:32;;;;;;;18.93;8.73;;;;;;;-2.77;100.00;100742.84;1731980;83;21021;-73
2022/02/15 01:28:59;;;;;;;15.53;7.63;;;;;;;-2.81;100.00;100744.77;1731976;83;21022;-73
2022/02/15 01:31:26;;;;;;;18.40;8.30;;;;;;;-2.83;100.00;100737.81;1731934;83;21073;-73
2022/02/15 01:33:53;;;;;;;18.80;8.03;;;;;;;-2.85;100.00;100743.20;1731920;83;21058;-73
2022/02/15 01:36:19;;;;;;;14.90;7.33;;;;;;;-2.88;100.00;100745.50;1732094;83;21014;-74
2022/02/15 01:38:48;;;;;;;17.60;7.67;;;;;;;-2.89;100.00;100750.86;1731859;83;21146;-74
2022/02/15 01:41:15;;;;;;;17.73;7.20;;;;;;;-2.92;100.00;100745.25;1732105;83;21539;-74
2022/02/15 01:43:43;;;;;;;18.13;7.63;;;;;;;-2.93;100.00;100746.64;1731918;83;21014;-75
2022/02/15 01:46:11;;;;;;;15.77;7.13;;;;;;;-2.91;100.00;100752.72;1731674;83;21058;-75
2022/02/15 01:48:39;;;;;;;15.00;6.87;;;;;;;-2.91;100.00;100748.75;1731920;83;20967;-74
2022/02/15 01:51:06;;;;;;;19.07;6.67;;;;;;;-2.90;100.00;100750.01;1731906;83;21026;-73
2022/02/15 01:53:33;;;;;;;15.03;6.47;;;;;;;-2.87;100.00;100749.00;1732037;83;20990;-74
2022/02/15 01:56:00;;;;;;;16.73;7.00;;;;;;;-2.82;100.00;100743.52;1731772;83;21485;-73
2022/02/15 01:58:29;;;;;;;16.70;7.20;;;;;;;-2.79;100.00;100737.62;1731653;83;21049;-73
2022/02/15 02:00:56;;;;;;;12.23;6.73;;;;;;;-2.76;100.00;100742.78;1731807;82;21068;-73
2022/02/15 02:03:25;;;;;;;14.07;6.17;;;;;;;-2.74;100.00;100742.24;1747908;81;21434;-73
2022/02/15 02:05:52;;;;;;;18.13;6.33;;;;;;;-2.72;100.00;100746.15;1760069;81;21090;-74
2022/02/15 02:08:27;;;;;;;16.80;6.63;;;;;;;-2.71;100.00;100744.77;1632423;87;21050;-73
2022/02/15 02:10:55;;;;;;;14.57;5.90;;;;;;;-2.72;100.00;100743.03;1641199;87;21022;-74
2022/02/15 02:13:24;;;;;;;15.00;6.20;;;;;;;-2.69;100.00;100740.25;1638075;87;21018;-73
2022/02/15 02:15:51;;;;;;;15.90;6.50;;;;;;;-2.67;100.00;100741.03;1631968;88;21572;-74
2022/02/15 02:18:29;;;;;;;15.47;6.40;;;;;;;-2.64;100.00;100744.47;1640009;87;21066;-73
2022/02/15 02:21:02;;;;;;;13.77;5.87;;;;;;;-2.65;100.00;100744.09;1647708;87;21053;-73
2022/02/15 02:23:33;;;;;;;15.03;6.13;;;;;;;-2.63;100.00;100752.82;1647867;87;21109;-74
2022/02/15 02:26:02;;;;;;;14.30;5.90;;;;;;;-2.64;100.00;100756.38;1640055;87;21057;-74
2022/02/15 02:28:32;;;;;;;14.93;6.47;;;;;;;-2.66;100.00;100748.51;1643508;87;21531;-73
2022/02/15 02:30:59;;;;;;;12.87;6.23;;;;;;;-2.70;100.00;100749.11;1643401;87;21073;-73
2022/02/15 02:33:26;;;;;;;13.30;6.70;;;;;;;-2.71;100.00;100750.05;1643313;87;21188;-74
2022/02/15 02:36:00;;;;;;;16.90;6.77;;;;;;;-2.71;100.00;100754.47;1643264;87;21034;-74
2022/02/15 02:38:27;;;;;;;14.37;6.13;;;;;;;-2.74;100.00;100750.19;1643633;87;21085;-73
2022/02/15 02:40:55;;;;;;;13.30;6.00;;;;;;;-2.75;100.00;100752.42;1640453;87;21165;-74
2022/02/15 02:43:25;;;;;;;13.60;6.20;;;;;;;-2.76;100.00;100745.43;1621603;87;21050;-75
2022/02/15 02:45:53;;;;;;;12.03;5.73;;;;;;;-2.76;100.00;100740.58;1643588;87;21022;-73
2022/02/15 02:48:20;;;;;;;13.20;6.30;;;;;;;-2.76;100.00;100741.46;1621759;87;21018;-74
2022/02/15 02:50:47;;;;;;;13.63;6.23;;;;;;;-2.76;100.00;100740.13;1643769;87;21057;-73
2022/02/15 02:53:17;;;;;;;16.77;7.60;;;;;;;-2.75;100.00;100743.63;1643583;87;20982;-74
2022/02/15 02:55:44;;;;;;;17.17;7.37;;;;;;;-2.77;100.00;100734.91;1643400;87;21552;-73
2022/02/15 02:58:12;;;;;;;15.10;7.57;;;;;;;-2.78;100.00;100741.11;1643603;87;21093;-74
2022/02/15 03:00:39;;;;;;;16.07;7.67;;;;;;;-2.76;100.00;100736.61;1621647;87;21074;-74
2022/02/15 03:03:13;;;;;;;18.13;8.33;;;;;;;-2.76;100.00;100740.13;1637186;87;21069;-74
2022/02/15 03:05:42;;;;;;;20.30;8.93;;;;;;;-2.74;100.00;100739.59;1705831;83;21094;-74
2022/02/15 03:08:08;;;;;;;16.90;8.20;;;;;;;-2.74;100.00;100737.42;1701660;84;21014;-74
2022/02/15 03:10:37;;;;;;;17.97;7.80;;;;;;;-2.73;100.00;100745.27;1701842;84;21054;-76
2022/02/15 03:13:05;;;;;;;15.93;7.00;;;;;;;-2.71;100.00;100742.55;1702047;84;21034;-74
2022/02/15 03:15:33;;;;;;;23.47;10.47;;;;;;;-2.72;100.00;100735.09;1731948;83;21081;-74
2022/02/15 03:18:02;;;;;;;21.27;9.83;;;;;;;-2.70;100.00;100743.81;1731755;82;21042;-74
2022/02/15 03:20:30;;;;;;;40.10;18.13;;;;;;;-2.70;100.00;100739.84;1732153;83;21038;-73
2022/02/15 03:22:56;;;;;;;49.23;20.67;;;;;;;-2.71;100.00;100738.14;1731842;83;21567;-74
2022/02/15 03:25:23;;;;;;;50.47;23.20;;;;;;;-2.74;100.00;100731.66;1732111;83;21010;-74
2022/02/15 03:27:50;;;;;;;26.37;11.47;;;;;;;-2.76;100.00;100731.31;1732214;83;21046;-73
2022/02/15 03:30:17;;;;;;;18.03;7.07;;;;;;;-2.77;100.00;100739.73;1732139;83;20978;-74
2022/02/15 03:32:44;;;;;;;14.33;6.37;;;;;;;-2.78;100.00;100739.34;1732127;83;21018;-74
2022/02/15 03:35:11;;;;;;;19.67;7.73;;;;;;;-2.79;100.00;100734.97;1732288;83;21520;-74
2022/02/15 03:37:41;;;;;;;17.80;8.00;;;;;;;-2.77;100.00;100738.41;1732059;83;21030;-74
2022/02/15 03:40:09;;;;;;;17.97;8.03;;;;;;;-2.77;100.00;100738.41;1731948;83;21045;-74
2022/02/15 03:45:22;;;;;;;16.97;7.00;;;;;;;-2.74;100.00;100740.07;1732000;83;21018;-74
2022/02/15 03:47:53;;;;;;;17.90;6.23;;;;;;;-2.73;100.00;100732.03;1664266;86;21062;-74
2022/02/15 03:50:21;;;;;;;11.43;5.73;;;;;;;-2.74;100.00;100735.63;1664252;86;21034;-75
2022/02/15 03:52:48;;;;;;;12.37;6.40;;;;;;;-2.75;100.00;100733.89;1664425;86;21061;-73
2022/02/15 03:55:15;;;;;;;12.60;5.53;;;;;;;-2.75;100.00;100737.86;1664701;86;21069;-74
2022/02/15 03:57:42;;;;;;;12.67;6.00;;;;;;;-2.75;100.00;100733.05;1664279;86;21583;-74
2022/02/15 04:00:16;;;;;;;14.90;6.30;;;;;;;-2.76;100.00;100736.16;1664403;86;21082;-73
2022/02/15 04:02:45;;;;;;;15.17;6.37;;;;;;;-2.77;100.00;100733.11;1666932;86;21022;-74
2022/02/15 04:05:12;;;;;;;13.90;6.27;;;;;;;-2.77;100.00;100730.94;1667712;84;21062;-74
2022/02/15 04:07:38;;;;;;;13.67;6.10;;;;;;;-2.78;100.00;100738.02;1667782;86;21129;-72
2022/02/15 04:10:08;;;;;;;14.57;6.37;;;;;;;-2.78;100.00;100742.00;1667978;86;21026;-73
2022/02/15 04:12:36;;;;;;;13.00;6.27;;;;;;;-2.77;100.00;100741.52;1667630;86;21077;-73
2022/02/15 04:15:05;;;;;;;14.27;6.47;;;;;;;-2.78;100.00;100745.97;1667757;86;21011;-75
2022/02/15 04:17:33;;;;;;;14.07;5.47;;;;;;;-2.78;100.00;100741.11;1664889;86;20995;-74
2022/02/15 04:20:01;;;;;;;13.80;6.00;;;;;;;-2.80;100.00;100737.69;1660630;86;21074;-73
2022/02/15 04:22:28;;;;;;;10.50;4.97;;;;;;;-2.82;100.00;100741.72;1660339;86;21006;-75
2022/02/15 04:24:55;;;;;;;10.33;5.17;;;;;;;-2.83;100.00;100740.45;1687985;82;21057;-74
2022/02/15 04:27:22;;;;;;;13.07;5.77;;;;;;;-2.84;100.00;100744.05;1739934;82;20997;-75
2022/02/15 04:29:50;;;;;;;14.73;6.40;;;;;;;-2.86;100.00;100740.99;1739999;82;20982;-74
2022/02/15 04:32:17;;;;;;;16.03;6.57;;;;;;;-2.88;100.00;100748.63;1740253;82;21002;-74
2022/02/15 04:34:44;;;;;;;16.90;7.50;;;;;;;-2.88;100.00;100752.59;1741344;82;21021;-74
2022/02/15 04:37:12;;;;;;;15.63;7.13;;;;;;;-2.90;100.00;100750.01;1740714;82;21070;-74
2022/02/15 04:39:39;;;;;;;17.37;7.77;;;;;;;-2.92;100.00;100747.90;1739105;82;21041;-74
2022/02/15 04:42:10;;;;;;;20.37;9.90;;;;;;;-2.93;100.00;100749.28;1739162;82;21039;-74
2022/02/15 04:44:37;;;;;;;25.57;12.60;;;;;;;-2.94;100.00;100759.02;1739189;82;21026;-73
2022/02/15 04:47:04;;;;;;;28.17;14.67;;;;;;;-2.94;100.00;100755.48;1738633;82;21089;-74
2022/02/15 04:49:32;;;;;;;36.23;16.50;;;;;;;-2.95;100.00;100762.58;1739106;82;21041;-73
2022/02/15 04:52:00;;;;;;;28.00;15.83;;;;;;;-2.94;100.00;100767.40;1739045;82;21014;-74
2022/02/15 04:54:27;;;;;;;32.97;18.30;;;;;;;-2.95;100.00;100767.02;1738886;82;21085;-73
2022/02/15 04:56:53;;;;;;;32.03;18.43;;;;;;;-2.97;100.00;100766.23;1738577;82;21021;-74
2022/02/15 04:59:20;;;;;;;29.50;14.57;;;;;;;-2.99;100.00;100770.70;1738935;82;21014;-74
2022/02/15 05:01:48;;;;;;;28.97;14.03;;;;;;;-3.01;100.00;100776.53;1738219;82;21101;-74
2022/02/15 05:07:05;;;;;;;25.67;11.97;;;;;;;-3.03;100.00;100778.39;1731801;83;21104;-74
2022/02/15 05:09:34;;;;;;;24.00;10.83;;;;;;;-3.04;100.00;100778.02;1726971;83;21002;-74
2022/02/15 05:12:01;;;;;;;22.57;10.90;;;;;;;-3.06;100.00;100778.92;1731827;83;21022;-74
2022/02/15 05:14:28;;;;;;;25.53;11.53;;;;;;;-3.06;100.00;100778.92;1723111;83;21018;-74
2022/02/15 05:16:55;;;;;;;21.13;10.37;;;;;;;-3.03;100.00;100779.72;1731971;82;21093;-73
2022/02/15 05:19:24;;;;;;;21.77;9.50;;;;;;;-3.02;100.00;100786.73;1726921;81;20971;-74
2022/02/15 05:21:53;;;;;;;20.23;8.93;;;;;;;-3.00;100.00;100787.53;1727224;83;21062;-73
2022/02/15 05:24:20;;;;;;;21.03;9.50;;;;;;;-2.99;100.00;100788.79;1732871;83;20994;-75
2022/02/15 05:26:50;;;;;;;23.77;8.60;;;;;;;-2.96;100.00;100795.25;1732519;83;21156;-74
2022/02/15 05:29:21;;;;;;;20.63;8.50;;;;;;;-2.93;100.00;100788.98;1727749;83;20986;-74
2022/02/15 05:31:49;;;;;;;19.20;8.50;;;;;;;-2.89;100.00;100799.34;1732821;83;21007;-75
2022/02/15 05:34:16;;;;;;;23.73;10.00;;;;;;;-2.85;100.00;100796.14;1733059;83;21041;-75
2022/02/15 05:36:44;;;;;;;21.87;9.93;;;;;;;-2.81;100.00;100801.69;1732784;83;21579;-73
2022/02/15 05:39:18;;;;;;;22.73;9.70;;;;;;;-2.77;100.00;100804.58;1732786;83;21001;-75
2022/02/15 05:41:47;;;;;;;23.13;10.20;;;;;;;-2.72;100.00;100803.92;1728044;83;21054;-75
2022/02/15 05:44:14;;;;;;;26.63;10.63;;;;;;;-2.63;100.00;100797.83;1732935;83;21054;-74
2022/02/15 05:46:47;;;;;;;26.90;11.30;;;;;;;-2.50;100.00;100802.52;1732781;83;21579;-74
2022/02/15 05:49:14;;;;;;;24.53;10.43;;;;;;;-2.34;100.00;100803.13;1732927;83;20998;-73
2022/02/15 05:51:53;;;;;;;33.77;13.47;;;;;;;-2.18;100.00;100804.61;1728019;83;21134;-73
2022/02/15 05:54:21;;;;;;;26.17;11.23;;;;;;;-2.07;100.00;100805.43;1693117;85;21011;-75
2022/02/15 05:56:50;;;;;;;24.57;10.63;;;;;;;-1.97;100.00;100812.03;1703034;83;21054;-74
2022/02/15 05:59:27;;;;;;;31.40;11.03;;;;;;;-1.88;100.00;100814.71;1630274;88;21027;-75
2022/02/15 06:01:59;;;;;;;24.67;10.33;;;;;;;-1.79;100.00;100816.48;1625446;88;21115;-74
2022/02/15 06:04:28;;;;;;;32.07;11.30;;;;;;;-1.69;100.00;100828.81;1625852;88;21074;-75
2022/02/15 06:06:56;;;;;;;25.20;10.20;;;;;;;-1.57;100.00;100832.67;1580753;91;21088;-72
2022/02/15 06:09:25;;;;;;;20.90;8.10;;;;;;;-1.47;100.00;100826.45;1580998;91;21137;-71
2022/02/15 06:11:52;;;;;;;21.60;8.87;;;;;;;-1.35;100.00;100825.84;1581100;91;21049;-72
2022/02/15 06:14:21;;;;;;;26.27;9.00;;;;;;;-1.24;100.00;100834.59;1580801;91;21531;-73
2022/02/15 06:16:48;;;;;;;23.07;8.17;;;;;;;-1.14;100.00;100833.21;1580455;91;21033;-72
2022/02/15 06:19:20;;;;;;;20.73;7.43;;;;;;;-1.03;100.00;100844.14;1577492;91;21070;-73
2022/02/15 06:21:48;;;;;;;21.23;6.67;;;;;;;-0.91;100.00;100849.31;1580591;91;21062;-73
2022/02/15 06:24:17;;;;;;;22.13;6.73;;;;;;;-0.82;100.00;100840.87;1579967;91;21030;-74
2022/02/15 06:26:47;;;;;;;22.93;7.67;;;;;;;-0.72;100.00;100851.89;1579904;91;21066;-72
2022/02/15 06:29:22;;;;;;;23.20;8.87;;;;;;;-0.65;100.00;100862.59;1577158;90;21061;-73
2022/02/15 06:31:52;;;;;;;18.80;8.97;;;;;;;-0.55;100.00;100866.09;1576980;91;21105;-71
2022/02/15 06:34:19;;;;;;;22.53;8.67;;;;;;;-0.42;100.00;100875.16;1580425;91;21074;-75
2022/02/15 06:36:46;;;;;;;31.33;14.97;;;;;;;-0.33;100.00;100872.01;1618317;88;21082;-75
2022/02/15 06:39:14;;;;;;;21.30;8.87;;;;;;;-0.24;100.00;100875.50;1633079;88;21076;-75
2022/02/15 06:41:43;;;;;;;25.23;7.27;;;;;;;-0.13;100.00;100882.91;1632599;88;21107;-74
2022/02/15 06:44:12;;;;;;;21.13;7.23;;;;;;;-0.04;100.00;100889.05;1629695;88;21084;-75
2022/02/15 06:46:43;;;;;;;34.60;9.03;;;;;;;0.05;100.00;100887.70;1632809;88;21088;-74
2022/02/15 06:49:12;;;;;;;33.80;8.33;;;;;;;0.15;100.00;100892.91;1625854;87;21022;-75
2022/02/15 06:51:39;;;;;;;25.80;9.03;;;;;;;0.28;100.00;100897.56;1632908;87;21120;-75
2022/02/15 06:54:12;;;;;;;19.00;7.67;;;;;;;0.38;100.00;100898.78;1635636;87;21476;-71
2022/02/15 06:56:42;;;;;;;23.63;7.53;;;;;;;0.48;100.00;100903.11;1634232;87;21057;-73
2022/02/15 06:59:13;;;;;;;27.80;7.60;;;;;;;0.59;100.00;100911.85;1622729;87;21593;-71
2022/02/15 07:01:43;;;;;;;29.37;8.90;;;;;;;0.73;100.00;100909.27;1627327;87;21060;-71
2022/02/15 07:04:12;;;;;;;28.37;7.23;;;;;;;0.89;100.00;100918.58;1700514;81;21006;-71
2022/02/15 07:06:39;;;;;;;19.10;6.27;;;;;;;1.04;100.00;100927.48;1747102;81;21012;-72
2022/02/15 07:09:07;;;;;;;24.93;7.53;;;;;;;1.13;100.00;100938.48;1750597;81;20996;-73
2022/02/15 07:11:35;;;;;;;29.90;11.70;;;;;;;1.23;100.00;100947.27;1740009;81;21045;-72
2022/02/15 07:14:04;;;;;;;24.20;8.17;;;;;;;1.36;100.00;100952.25;1715605;82;21028;-71
2022/02/15 07:16:31;;;;;;;23.00;7.60;;;;;;;1.49;100.00;100958.59;1743542;81;21028;-71
2022/02/15 07:19:00;;;;;;;22.60;7.27;;;;;;;1.62;100.00;100972.05;1743020;81;21503;-72
2022/02/15 07:21:34;;;;;;;27.73;9.07;;;;;;;1.69;100.00;100975.22;1678322;85;21525;-69
2022/02/15 07:24:19;;;;;;;34.57;8.83;;;;;;;1.78;100.00;100991.15;1675290;85;21082;-71
2022/02/15 07:27:05;;;;;;;20.17;7.30;;;;;;;1.94;100.00;101000.43;1682075;84;21542;-71
2022/02/15 07:29:36;;;;;;;26.40;8.13;;;;;;;2.08;100.00;101019.13;1685479;84;21554;-70
2022/02/15 07:32:06;;;;;;;23.87;8.13;;;;;;;2.25;100.00;101024.80;1608497;89;21045;-72
2022/02/15 07:34:32;;;;;;;15.60;6.73;;;;;;;2.42;100.00;101031.75;1606476;89;21444;-71
2022/02/15 07:36:59;;;;;;;18.37;6.77;;;;;;;2.51;100.00;101043.67;1609765;89;21047;-72
2022/02/15 07:39:27;;;;;;;16.93;5.90;;;;;;;2.60;100.00;101051.98;1609592;89;21639;-72
2022/02/15 07:41:53;;;;;;;19.40;7.40;;;;;;;2.71;100.00;101064.67;1609704;89;21585;-73
2022/02/15 07:44:22;;;;;;;17.47;6.07;;;;;;;2.81;100.00;101056.92;1609810;89;21541;-73
2022/02/15 07:46:49;;;;;;;18.27;6.63;;;;;;;2.95;100.00;101071.61;1608791;88;21617;-71
2022/02/15 07:49:16;;;;;;;22.13;6.50;;;;;;;3.01;100.00;101073.91;1610383;88;21064;-73
2022/02/15 07:51:44;;;;;;;16.40;6.10;;;;;;;3.12;100.00;101067.87;1609143;88;21109;-73
2022/02/15 07:54:12;;;;;;;25.23;8.03;;;;;;;3.22;100.00;101072.14;1609263;88;21010;-72
2022/02/15 07:56:39;;;;;;;21.13;6.83;;;;;;;3.40;100.00;101070.13;1609363;89;20994;-75
2022/02/15 07:59:07;;;;;;;20.90;6.40;;;;;;;3.53;100.00;101078.20;1605919;88;21128;-73
2022/02/15 08:01:35;;;;;;;20.77;6.30;;;;;;;3.65;100.00;101084.08;1600502;88;21599;-70
2022/02/15 08:04:02;;;;;;;14.10;6.63;;;;;;;3.69;100.00;101082.91;1616369;88;21081;-73
2022/02/15 08:06:31;;;;;;;21.70;7.53;;;;;;;3.75;100.00;101087.87;1598021;88;21113;-72
2022/02/15 08:08:58;;;;;;;33.93;8.87;;;;;;;3.87;100.00;101092.87;1602711;88;21047;-72
2022/02/15 08:11:25;;;;;;;23.90;7.07;;;;;;;3.95;100.00;101083.86;1605929;88;21559;-73
2022/02/15 08:13:53;;;;;;;23.10;7.47;;;;;;;4.14;100.00;101082.14;1606138;88;21086;-74
2022/02/15 08:16:22;;;;;;;19.97;8.77;;;;;;;4.29;100.00;101088.27;1611396;89;21043;-69
2022/02/15 08:18:49;;;;;;;21.10;7.37;;;;;;;4.38;100.00;101088.96;1607843;88;22270;-72
2022/02/15 08:21:16;;;;;;;15.47;6.33;;;;;;;4.47;100.00;101103.55;1613537;89;21105;-72
2022/02/15 08:23:43;;;;;;;14.13;6.07;;;;;;;4.57;100.00;101099.77;1614196;88;21097;-71
2022/02/15 08:26:10;;;;;;;18.57;6.87;;;;;;;4.65;100.00;101098.73;1624474;86;21049;-72
2022/02/15 08:28:41;;;;;;;19.00;6.57;;;;;;;4.75;100.00;101104.31;1688901;81;21084;-74
2022/02/15 08:31:06;;;;;;;21.70;9.53;;;;;;;4.72;100.00;101105.86;1704407;81;21028;-73
2022/02/15 08:33:34;;;;;;;26.70;8.67;;;;;;;4.64;100.00;101103.73;1738923;81;21038;-73
2022/02/15 08:36:01;;;;;;;23.40;6.50;;;;;;;4.72;100.00;101093.81;1743926;81;21032;-72
2022/02/15 08:38:31;;;;;;;20.60;8.10;;;;;;;4.91;100.00;101105.44;1746504;81;21592;-72
2022/02/15 08:40:56;;;;;;;19.37;7.67;;;;;;;5.11;100.00;101096.81;1746354;81;21054;-71
2022/02/15 08:43:25;;;;;;;21.63;7.53;;;;;;;5.36;100.00;101098.22;1751694;81;21011;-73
2022/02/15 08:45:52;;;;;;;28.27;6.87;;;;;;;5.57;100.00;101094.45;1746257;81;21019;-68
2022/02/15 08:48:19;;;;;;;18.00;6.40;;;;;;;5.67;100.00;101094.16;1746395;81;21625;-69
2022/02/15 08:50:46;;;;;;;17.53;6.07;;;;;;;5.75;100.00;101097.60;1739756;81;21014;-69
2022/02/15 08:53:13;;;;;;;15.23;5.43;;;;;;;5.79;100.00;101094.59;1737124;81;21085;-71
2022/02/15 08:55:40;;;;;;;16.03;4.97;;;;;;;5.82;100.00;101088.97;1740913;81;21018;-70
2022/02/15 08:58:07;;;;;;;18.77;5.93;;;;;;;5.87;100.00;101085.45;1752231;81;21113;-72
2022/02/15 09:00:35;;;;;;;25.00;6.47;;;;;;;5.93;100.00;101086.81;1751780;81;21004;-72
2022/02/15 09:03:03;;;;;;;27.33;9.37;;;;;;;5.97;100.00;101084.33;1740887;81;21038;-72
2022/02/15 09:05:30;;;;;;;34.77;11.50;;;;;;;6.14;100.00;101081.69;1737907;81;21010;-71
2022/02/15 09:08:01;;;;;;;24.87;10.43;;;;;;;6.39;100.00;101076.66;1742175;82;21057;-70
2022/02/15 09:10:28;;;;;;;24.13;10.33;;;;;;;6.56;100.00;101087.42;1741581;81;21011;-73
2022/02/15 09:13:02;;;;;;;29.47;12.10;;;;;;;6.48;100.00;101084.49;1747747;81;20974;-72
2022/02/15 09:15:28;;;;;;;;;;;;;;;6.41;100.00;101080.07;1741058;81;21189;-73
2022/02/15 09:17:55;;;;;;;18.83;7.67;;;;;;;6.41;100.00;101079.19;1742386;81;20165;-73
2022/02/15 09:20:23;;;;;;;33.13;11.10;;;;;;;6.43;100.00;101078.12;1737166;81;20995;-70
2022/02/15 09:22:50;;;;;;;27.63;11.03;;;;;;;6.55;100.00;101079.01;1743427;81;21022;-71
2022/02/15 09:25:17;;;;;;;35.70;11.93;;;;;;;6.64;100.00;101074.75;1751477;81;21006;-73
2022/02/15 09:27:46;;;;;;;42.57;11.77;;;;;;;6.73;100.00;101067.30;1745770;81;21041;-72
2022/02/15 09:30:13;;;;;;;65.57;16.87;;;;;;;6.82;100.00;101067.91;1738179;81;21022;-70
2022/02/15 09:32:40;;;;;;;26.10;8.73;;;;;;;6.89;100.00;101062.91;1748467;81;21587;-71
2022/02/15 09:35:09;;;;;;;27.67;9.17;;;;;;;6.84;100.00;101064.60;1739576;81;21047;-70
2022/02/15 09:37:36;;;;;;;28.70;8.53;;;;;;;6.96;100.00;101055.21;1741713;81;20970;-71
2022/02/15 09:40:06;;;;;;;25.37;8.83;;;;;;;7.10;100.00;101059.45;1734481;81;21493;-72
2022/02/15 09:42:36;;;;;;;19.43;7.47;;;;;;;7.29;100.00;101052.10;1747458;81;21592;-71
2022/02/15 09:45:05;;;;;;;23.13;8.17;;;;;;;7.46;100.00;101050.73;1735324;81;21504;-74
2022/02/15 09:47:34;;;;;;;13.67;5.53;;;;;;;7.54;100.00;101053.63;1752523;81;21034;-73
2022/02/15 09:50:07;;;;;;;17.13;5.50;;;;;;;7.47;100.00;101049.73;1722947;82;20951;-71
2022/02/15 09:52:36;;;;;;;20.37;9.07;;;;;;;7.37;100.00;101046.96;1738052;81;20990;-71
2022/02/15 09:55:06;;;;;;;30.27;10.47;;;;;;;7.30;100.00;101043.91;1735209;81;21452;-70
2022/02/15 09:57:33;;;;;;;22.17;8.57;;;;;;;7.44;100.00;101041.44;1743906;81;21046;-72
2022/02/15 10:00:01;;;;;;;16.60;6.70;;;;;;;7.53;100.00;101039.83;1739393;81;20995;-73
2022/02/15 10:02:34;;;;;;;18.80;5.73;;;;;;;7.53;100.00;101039.33;1742874;81;21069;-71
2022/02/15 10:04:57;;;;;;;18.73;7.53;;;;;;;7.66;100.00;101032.42;1737609;81;20971;-70
2022/02/15 10:07:25;;;;;;;19.70;6.67;;;;;;;7.78;100.00;101033.25;1738654;81;21060;-70
2022/02/15 10:09:56;;;;;;;23.07;8.47;;;;;;;7.77;98.84;101029.70;1748865;81;21041;-73
2022/02/15 10:12:28;;;;;;;17.33;5.60;;;;;;;7.79;98.77;101025.05;1742908;81;20994;-70
2022/02/15 10:14:56;;;;;;;17.27;5.28;;;;;;;7.87;98.09;101023.05;1744777;81;21056;-72
2022/02/15 10:17:24;;;;;;;21.63;6.73;;;;;;;7.84;98.59;101027.33;1743970;81;21058;-70
2022/02/15 10:19:52;;;;;;;22.23;6.70;;;;;;;7.82;99.55;101021.72;1745397;81;21022;-71
2022/02/15 10:22:20;;;;;;;18.93;6.87;;;;;;;7.96;100.00;101020.91;1748073;81;21089;-70
2022/02/15 10:24:54;;;;;;;15.17;5.97;;;;;;;8.15;100.00;101024.24;1747447;81;21017;-71
2022/02/15 10:29:56;;;;;;;35.07;10.97;;;;;;;8.37;95.58;101025.09;1612543;88;21576;-71
2022/02/15 10:32:22;;;;;;;18.73;6.50;;;;;;;8.31;95.92;101020.23;1599712;88;21088;-78
2022/02/15 10:34:57;;;;;;;22.93;10.18;;;;;;;8.32;95.42;101019.23;1604317;88;21512;-80
2022/02/15 10:37:33;;;;;;;27.60;9.03;;;;;;;8.35;94.51;101023.86;1601277;88;21040;-76
2022/02/15 10:40:06;;;;;;;23.47;9.03;;;;;;;8.39;96.27;101008.28;1611295;88;21497;-76
2022/02/15 10:42:38;;;;;;;33.20;10.50;;;;;;;8.52;95.58;101011.66;1521077;93;21086;-75
2022/02/15 10:45:08;;;;;;;26.53;7.00;;;;;;;8.58;92.49;101010.77;1507700;95;21715;-78
2022/02/15 10:47:38;;;;;;;25.88;6.45;;;;;;;8.50;92.56;101002.86;1524505;93;21117;-76
2022/02/15 10:50:10;;;;;;;19.63;5.23;;;;;;;8.41;94.71;101006.81;1517951;93;21114;-76
2022/02/15 10:52:37;;;;;;;21.60;7.03;;;;;;;8.46;95.86;101003.25;1517050;95;21134;-78
2022/02/15 10:55:05;;;;;;;21.53;7.53;;;;;;;8.47;95.30;101000.42;1531118;93;21093;-77
2022/02/15 10:57:32;;;;;;;17.52;4.92;;;;;;;8.44;94.11;101002.03;1519676;93;21035;-77
2022/02/15 11:00:03;;;;;;;22.27;5.63;;;;;;;8.42;93.67;101001.79;1525507;93;21070;-78
2022/02/15 11:02:31;;;;;;;41.73;12.80;;;;;;;8.36;93.44;100991.05;1521694;93;21627;-79
2022/02/15 11:05:02;;;;;;;27.63;10.73;;;;;;;8.30;92.91;100987.53;1519540;93;21134;-80
2022/02/15 11:07:32;;;;;;;36.17;10.88;;;;;;;8.26;95.47;100985.59;1530691;93;21162;-74
2022/02/15 11:10:19;;;;;;;23.10;7.67;;;;;;;8.37;98.19;100988.70;1521266;93;21162;-77
2022/02/15 11:12:56;;;;;;;28.32;9.38;;;;;;;8.46;98.17;100976.30;1536468;93;21150;-80
2022/02/15 11:15:32;;;;;;;38.02;9.28;;;;;;;8.53;99.42;100982.39;1524437;93;21524;-78
2022/02/15 11:18:01;;;;;;;20.00;6.40;;;;;;;8.61;99.03;100972.77;1492723;95;21056;-80
2022/02/15 11:20:30;;;;;;;16.63;5.17;;;;;;;8.58;98.02;100971.68;1526154;93;21108;-76
2022/02/15 11:23:00;;;;;;;26.12;9.85;;;;;;;8.49;97.20;100972.00;1526426;93;21069;-78
2022/02/15 11:25:31;;;;;;;38.80;12.15;;;;;;;8.45;99.98;100959.79;1566565;90;21125;-75